createdAt,value
2019-04-25T00:01:14.353Z,279.84
2019-04-25T00:02:36.766Z,279.9
2019-04-25T00:04:37.006Z,280.02
2019-04-25T00:05:58.985Z,280.02
2019-04-25T00:07:58.885Z,279.9
2019-04-25T00:09:21.922Z,279.77
2019-04-25T00:11:22.037Z,279.65
2019-04-25T00:12:44.570Z,279.59
2019-04-25T00:14:44.482Z,279.65
2019-04-25T00:16:06.486Z,279.65
2019-04-25T00:18:06.334Z,279.46
2019-04-25T00:19:28.292Z,279.65
2019-04-25T00:21:28.153Z,279.52
2019-04-25T00:22:51.537Z,279.59
2019-04-25T00:24:53.129Z,279.4
2019-04-25T00:26:15.067Z,279.34
2019-04-25T00:28:15.302Z,279.34
2019-04-25T00:29:37.239Z,279.46
2019-04-25T00:31:38.957Z,279.59
2019-04-25T00:33:02.034Z,279.59
2019-04-25T00:35:02.134Z,279.46
2019-04-25T00:36:24.076Z,279.4
2019-04-25T00:38:25.064Z,279.21
2019-04-25T00:39:47.203Z,279.21
2019-04-25T00:41:47.372Z,279.15
2019-04-25T00:43:09.379Z,278.96
2019-04-25T00:45:09.211Z,278.77
2019-04-25T00:46:32.226Z,278.71
2019-04-25T00:48:32.408Z,278.71
2019-04-25T00:49:54.338Z,278.71
2019-04-25T00:51:55.125Z,278.71
2019-04-25T00:53:17.062Z,278.84
2019-04-25T00:55:26.200Z,278.71
2019-04-25T00:56:52.389Z,278.65
2019-04-25T00:58:54.054Z,278.46
2019-04-25T01:00:16.095Z,278.52
2019-04-25T01:02:15.924Z,278.34
2019-04-25T01:03:42.241Z,278.15
2019-04-25T01:05:44.378Z,278.34
2019-04-25T01:07:06.647Z,278.34
2019-04-25T01:09:06.487Z,278.27
2019-04-25T01:10:28.430Z,278.09
2019-04-25T01:12:28.329Z,277.96
2019-04-25T01:13:50.437Z,277.9
2019-04-25T01:15:52.914Z,277.84
2019-04-25T01:17:15.846Z,277.77
2019-04-25T01:19:15.700Z,277.71
2019-04-25T01:20:37.681Z,277.77
2019-04-25T01:22:37.524Z,277.84
2019-04-25T01:23:59.448Z,277.77
2019-04-25T01:26:03.310Z,277.84
2019-04-25T01:27:33.289Z,277.84
2019-04-25T01:29:33.831Z,277.84
2019-04-25T01:30:56.263Z,277.84
2019-04-25T01:32:57.510Z,277.77
2019-04-25T01:34:20.864Z,277.96
2019-04-25T01:36:20.977Z,278.02
2019-04-25T01:37:43.825Z,277.96
2019-04-25T01:39:44.227Z,278.02
2019-04-25T01:41:06.336Z,278.09
2019-04-25T03:50:06.757Z,276.46
2019-04-25T03:51:29.208Z,276.4
2019-04-25T03:53:29.072Z,276.46
2019-04-25T03:54:51.059Z,276.4
2019-04-25T03:56:54.327Z,276.34
2019-04-25T03:58:18.094Z,276.34
2019-04-25T04:00:17.953Z,276.4
2019-04-25T04:01:39.946Z,276.46
2019-04-25T04:03:39.861Z,276.21
2019-04-25T04:05:04.558Z,276.21
2019-04-25T04:07:08.413Z,276.27
2019-04-25T04:08:32.166Z,276.21
2019-04-25T04:10:33.240Z,276.34
2019-04-25T04:12:38.103Z,276.34
2019-04-25T04:13:59.998Z,276.27
2019-04-25T04:15:59.924Z,276.21
2019-04-25T04:17:21.864Z,276.27
2019-04-25T04:19:21.786Z,276.34
2019-04-25T04:20:43.790Z,276.4
2019-04-25T04:22:43.908Z,276.34
2019-04-25T04:24:06.112Z,276.4
2019-04-25T04:26:06.231Z,276.4
2019-04-25T04:27:28.255Z,276.4
2019-04-25T04:29:28.096Z,276.52
2019-04-25T04:30:50.651Z,276.46
2019-04-25T04:32:50.578Z,276.52
2019-04-25T04:34:14.349Z,276.52
2019-04-25T04:36:17.215Z,276.46
2019-04-25T04:37:39.679Z,276.52
2019-04-25T04:39:39.938Z,276.46
2019-04-25T04:41:01.925Z,276.52
2019-04-25T04:43:02.089Z,276.59
2019-04-25T04:44:24.151Z,276.59
2019-04-25T04:46:24.178Z,276.59
2019-04-25T04:47:46.153Z,276.65
2019-04-25T04:49:46.002Z,276.46
2019-04-25T04:51:08.972Z,276.52
2019-04-25T04:53:10.929Z,276.59
2019-04-25T04:54:34.503Z,276.59
2019-04-25T04:56:36.251Z,276.65
2019-04-25T04:57:58.171Z,276.77
2019-04-25T04:59:58.010Z,276.84
2019-04-25T05:01:19.922Z,276.9
2019-04-25T05:03:19.915Z,276.84
2019-04-25T05:04:43.493Z,276.9
2019-04-25T05:06:43.755Z,277.09
2019-04-25T05:08:05.793Z,277.21
2019-04-25T05:10:05.713Z,277.27
2019-04-25T05:11:27.679Z,277.21
2019-04-25T05:13:27.605Z,277.34
2019-04-25T05:14:49.532Z,277.4
2019-04-25T05:16:49.604Z,277.52
2019-04-25T05:18:14.184Z,277.65
2019-04-25T05:20:18.543Z,277.77
2019-04-25T05:21:40.822Z,277.84
2019-04-25T05:23:41.428Z,277.84
2019-04-25T05:25:03.541Z,277.96
2019-04-25T05:27:03.892Z,278.09
2019-04-25T05:28:25.993Z,278.15
2019-04-25T05:30:26.588Z,278.34
2019-04-25T05:31:48.731Z,278.52
2019-04-25T05:33:48.793Z,278.65
2019-04-25T05:35:10.723Z,278.65
2019-04-25T05:37:10.592Z,278.84
2019-04-25T05:38:33.302Z,278.84
2019-04-25T05:40:33.624Z,278.96
2019-04-25T05:41:55.787Z,279.09
2019-04-25T05:43:55.795Z,279.15
2019-04-25T05:45:18.579Z,279.27
2019-04-25T05:47:21.340Z,279.34
2019-04-25T05:48:44.583Z,279.52
2019-04-25T05:50:45.684Z,279.59
2019-04-25T05:52:08.659Z,279.65
2019-04-25T05:54:08.589Z,279.96
2019-04-25T05:55:30.576Z,280.09
2019-04-25T05:57:44.886Z,280.15
2019-04-25T05:59:08.096Z,280.27
2019-04-25T06:01:08.256Z,280.34
2019-04-25T06:02:30.296Z,280.46
2019-04-25T06:04:30.348Z,280.59
2019-04-25T06:05:53.338Z,280.65
2019-04-25T06:07:54.317Z,280.71
2019-04-25T06:09:17.680Z,280.77
2019-04-25T06:11:18.061Z,280.77
2019-04-25T06:12:40.020Z,280.84
2019-04-25T06:14:43.289Z,280.96
2019-04-25T06:16:05.389Z,281.09
2019-04-25T06:18:05.849Z,281.27
2019-04-25T06:19:27.891Z,281.4
2019-04-25T06:21:27.788Z,281.59
2019-04-25T06:22:49.787Z,281.71
2019-04-25T06:24:49.707Z,281.9
2019-04-25T06:26:22.563Z,282.02
2019-04-25T06:28:26.246Z,282.21
2019-04-25T06:29:57.624Z,282.27
2019-04-25T06:32:06.547Z,282.46
2019-04-25T06:33:30.357Z,282.52
2019-04-25T06:35:30.242Z,282.65
2019-04-25T06:36:53.597Z,282.71
2019-04-25T06:38:54.478Z,282.9
2019-04-25T06:40:16.405Z,283.02
2019-04-25T06:42:17.316Z,283.21
2019-04-25T06:43:39.314Z,283.4
2019-04-25T06:45:39.371Z,283.52
2019-04-25T06:47:01.383Z,283.77
2019-04-25T06:49:01.362Z,283.9
2019-04-25T06:50:24.875Z,284.02
2019-04-25T06:52:30.654Z,284.15
2019-04-25T06:53:54.038Z,284.4
2019-04-25T06:55:54.843Z,284.46
2019-04-25T06:57:16.854Z,284.59
2019-04-25T06:59:18.486Z,284.71
2019-04-25T07:00:42.632Z,284.77
2019-04-25T07:02:49.613Z,284.84
2019-04-25T07:04:11.549Z,284.96
2019-04-25T07:06:12.946Z,285.15
2019-04-25T07:07:37.207Z,285.15
2019-04-25T07:09:37.214Z,285.21
2019-04-25T07:10:59.209Z,285.34
2019-04-25T07:12:59.071Z,285.4
2019-04-25T07:14:21.061Z,285.52
2019-04-25T07:16:24.050Z,285.59
2019-04-25T07:19:04.587Z,285.71
2019-04-25T07:20:27.036Z,285.84
2019-04-25T07:22:27.347Z,285.9
2019-04-25T07:23:49.314Z,286.02
2019-04-25T07:25:49.211Z,286.15
2019-04-25T07:27:16.224Z,286.27
2019-04-25T07:29:16.258Z,286.27
2019-04-25T07:32:47.003Z,286.52
2019-04-25T07:34:10.971Z,286.52
2019-04-25T07:36:10.856Z,286.59
2019-04-25T07:37:34.909Z,286.65
2019-04-25T07:39:37.088Z,286.84
2019-04-25T07:40:59.071Z,286.96
2019-04-25T07:42:58.972Z,287.09
2019-04-25T07:44:33.631Z,287.15
2019-04-25T07:46:39.260Z,287.21
2019-04-25T07:48:01.857Z,287.46
2019-04-25T07:50:01.852Z,287.52
2019-04-25T07:51:23.790Z,287.59
2019-04-25T07:53:24.015Z,287.71
2019-04-25T07:54:47.691Z,287.9
2019-04-25T07:56:49.211Z,287.96
2019-04-25T07:58:11.312Z,287.9
2019-04-25T08:00:11.296Z,287.9
2019-04-25T08:01:36.102Z,288.02
2019-04-25T08:03:37.139Z,288.21
2019-04-25T08:04:59.076Z,288.27
2019-04-25T08:06:58.976Z,288.09
2019-04-25T08:08:20.931Z,288.21
2019-04-25T08:10:21.612Z,288.21
2019-04-25T08:11:44.107Z,288.21
2019-04-25T08:13:44.044Z,288.52
2019-04-25T08:15:05.998Z,288.59
2019-04-25T08:17:05.925Z,288.52
2019-04-25T08:18:28.714Z,288.59
2019-04-25T08:20:29.277Z,288.65
2019-04-25T08:21:51.367Z,288.71
2019-04-25T08:23:51.216Z,288.77
2019-04-25T08:25:13.786Z,288.84
2019-04-25T08:27:13.803Z,289.02
2019-04-25T08:28:48.849Z,289.02
2019-04-25T08:41:16.179Z,289.4
2019-04-25T08:42:38.094Z,289.27
2019-04-25T08:44:37.933Z,289.52
2019-04-25T08:45:59.961Z,289.46
2019-04-25T08:48:03.666Z,289.4
2019-04-25T08:49:25.697Z,289.65
2019-04-25T08:51:25.535Z,289.77
2019-04-25T08:52:47.434Z,289.77
2019-04-25T08:54:47.696Z,289.96
2019-04-25T08:56:11.678Z,290.09
2019-04-25T08:58:11.549Z,289.96
2019-04-25T08:59:40.073Z,290.02
2019-04-25T09:01:45.193Z,290.09
2019-04-25T09:03:07.304Z,290.15
2019-04-25T09:05:07.259Z,290.15
2019-04-25T09:06:29.402Z,290.34
2019-04-25T09:08:29.582Z,290.34
2019-04-25T09:09:53.527Z,290.34
2019-04-25T09:11:54.383Z,290.34
2019-04-25T09:13:16.726Z,290.4
2019-04-25T09:15:16.729Z,290.46
2019-04-25T09:16:39.806Z,290.46
2019-04-25T09:18:40.267Z,290.65
2019-04-25T09:20:03.882Z,290.71
2019-04-25T09:22:03.937Z,290.71
2019-04-25T09:23:26.975Z,290.77
2019-04-25T09:25:26.808Z,290.77
2019-04-25T09:26:48.830Z,290.84
2019-04-25T09:28:48.732Z,290.96
2019-04-25T09:30:10.649Z,291.02
2019-04-25T09:32:10.506Z,291.02
2019-04-25T09:33:34.168Z,291.15
2019-04-25T09:35:36.051Z,291.21
2019-04-25T09:36:58.158Z,291.21
2019-04-25T09:38:57.996Z,291.21
2019-04-25T09:40:19.998Z,291.27
2019-04-25T09:42:19.848Z,291.4
2019-04-25T09:43:41.917Z,291.4
2019-04-25T09:45:43.462Z,291.46
2019-04-25T09:47:06.982Z,291.59
2019-04-25T09:49:08.828Z,291.65
2019-04-25T09:50:30.830Z,291.71
2019-04-25T09:52:30.731Z,291.77
2019-04-25T09:53:54.204Z,291.84
2019-04-25T09:55:54.309Z,291.84
2019-04-25T09:57:16.251Z,291.84
2019-04-25T09:59:26.774Z,291.84
2019-04-25T10:00:54.716Z,291.9
2019-04-25T10:02:55.534Z,292.02
2019-04-25T10:04:17.536Z,292.15
2019-04-25T10:06:17.374Z,292.27
2019-04-25T10:07:39.299Z,292.27
2019-04-25T10:09:39.853Z,292.34
2019-04-25T10:11:01.927Z,292.4
2019-04-25T10:13:04.031Z,292.46
2019-04-25T10:14:28.131Z,292.65
2019-04-25T10:16:28.004Z,292.77
2019-04-25T10:17:49.938Z,292.65
2019-04-25T10:19:49.784Z,292.65
2019-04-25T10:21:12.010Z,292.65
2019-04-25T10:23:11.872Z,292.84
2019-04-25T10:24:33.853Z,292.96
2019-04-25T10:26:34.909Z,292.96
2019-04-25T10:27:57.066Z,292.96
2019-04-25T10:29:57.776Z,293.15
2019-04-25T10:31:19.777Z,293.15
2019-04-25T10:33:19.646Z,293.27
2019-04-25T10:34:44.663Z,293.4
2019-04-25T10:36:46.777Z,293.52
2019-04-25T10:38:09.787Z,293.46
2019-04-25T10:40:09.845Z,293.52
2019-04-25T10:41:33.623Z,293.27
2019-04-25T10:43:35.796Z,293.34
2019-04-25T10:44:57.849Z,293.34
2019-04-25T10:46:57.697Z,293.46
2019-04-25T10:48:19.613Z,293.52
2019-04-25T10:50:19.460Z,293.52
2019-04-25T10:51:42.718Z,293.59
2019-04-25T10:53:46.022Z,293.52
2019-04-25T10:55:08.896Z,293.59
2019-04-25T10:57:09.376Z,293.71
2019-04-25T10:58:31.292Z,293.77
2019-04-25T11:00:31.211Z,293.71
2019-04-25T11:01:55.089Z,293.77
2019-04-25T11:03:55.668Z,293.71
2019-04-25T11:05:18.328Z,293.77
2019-04-25T11:07:18.653Z,294.09
2019-04-25T11:08:40.568Z,294.27
2019-04-25T11:10:40.583Z,294.02
2019-04-25T11:12:03.608Z,294.09
2019-04-25T11:14:03.545Z,293.96
2019-04-25T11:15:25.452Z,293.84
2019-04-25T11:17:25.470Z,294.09
2019-04-25T11:18:47.598Z,294.21
2019-04-25T11:20:47.609Z,294.34
2019-04-25T11:22:09.690Z,294.27
2019-04-25T11:24:09.617Z,294.27
2019-04-25T11:25:31.569Z,294.52
2019-04-25T11:27:31.451Z,294.77
2019-04-25T11:28:54.409Z,294.77
2019-04-25T11:30:55.504Z,294.84
2019-04-25T11:32:19.881Z,294.84
2019-04-25T11:34:20.600Z,294.9
2019-04-25T11:35:42.586Z,294.77
2019-04-25T11:37:43.166Z,294.84
2019-04-25T11:39:05.203Z,294.96
2019-04-25T11:41:05.067Z,294.9
2019-04-25T11:42:27.053Z,294.96
2019-04-25T11:44:26.902Z,295.21
2019-04-25T11:45:49.221Z,295.27
2019-04-25T11:47:49.862Z,295.09
2019-04-25T11:49:13.115Z,294.96
2019-04-25T11:51:15.037Z,294.9
2019-04-25T11:52:43.715Z,294.84
2019-04-25T11:54:45.745Z,294.96
2019-04-25T11:56:08.735Z,295.02
2019-04-25T11:58:08.728Z,295.09
2019-04-25T11:59:30.735Z,295.09
2019-04-25T12:01:30.587Z,295.02
2019-04-25T12:02:52.589Z,295.09
2019-04-25T12:04:54.863Z,295.15
2019-04-25T12:06:20.494Z,295.02
2019-04-25T12:08:21.065Z,294.96
2019-04-25T12:09:46.499Z,294.96
2019-04-25T12:11:47.225Z,294.96
2019-04-25T12:13:10.505Z,294.71
2019-04-25T12:15:10.352Z,294.59
2019-04-25T12:16:32.406Z,294.46
2019-04-25T12:18:33.903Z,294.65
2019-04-25T12:19:57.494Z,294.71
2019-04-25T12:21:58.170Z,294.65
2019-04-25T12:23:21.215Z,294.46
2019-04-25T12:25:21.213Z,294.27
2019-04-25T12:26:45.102Z,294.4
2019-04-25T12:28:47.316Z,294.52
2019-04-25T12:30:09.292Z,294.65
2019-04-25T12:32:09.129Z,294.71
2019-04-25T12:33:32.000Z,294.71
2019-04-25T12:35:33.311Z,294.71
2019-04-25T12:36:55.369Z,294.77
2019-04-25T12:38:55.559Z,294.77
2019-04-25T12:40:17.533Z,294.77
2019-04-25T12:42:18.187Z,294.65
2019-04-25T12:43:40.343Z,294.77
2019-04-25T12:45:40.164Z,294.71
2019-04-25T12:47:03.358Z,294.71
2019-04-25T12:49:03.290Z,294.65
2019-04-25T12:50:25.213Z,294.65
2019-04-25T12:52:25.054Z,294.65
2019-04-25T12:53:47.949Z,294.59
2019-04-25T12:55:49.014Z,294.65
2019-04-25T12:57:10.976Z,294.65
2019-04-25T12:59:10.828Z,294.65
2019-04-25T13:00:34.203Z,294.71
2019-04-25T13:02:36.286Z,294.65
2019-04-25T13:03:58.865Z,294.71
2019-04-25T13:05:58.817Z,294.65
2019-04-25T13:07:20.729Z,294.71
2019-04-25T13:09:20.654Z,294.71
2019-04-25T13:10:44.299Z,294.84
2019-04-25T13:12:44.458Z,294.84
2019-04-25T13:14:06.414Z,294.84
2019-04-25T13:16:06.255Z,294.9
2019-04-25T13:17:28.247Z,295.02
2019-04-25T13:19:28.093Z,295.02
2019-04-25T13:20:49.994Z,295.02
2019-04-25T13:22:49.847Z,295.09
2019-04-25T13:24:11.844Z,295.15
2019-04-25T13:26:11.701Z,295.21
2019-04-25T13:27:34.011Z,295.21
2019-04-25T13:29:33.868Z,295.21
2019-04-25T13:31:03.783Z,295.34
2019-04-25T13:33:08.600Z,295.4
2019-04-25T13:34:36.241Z,295.4
2019-04-25T13:36:36.574Z,295.4
2019-04-25T13:37:59.297Z,295.4
2019-04-25T13:40:00.466Z,295.4
2019-04-25T13:41:22.572Z,295.4
2019-04-25T13:43:22.413Z,295.34
2019-04-25T13:44:44.420Z,295.46
2019-04-25T13:46:44.349Z,295.52
2019-04-25T13:47:36.588Z,295.59
2019-04-25T13:49:23.211Z,295.65
2019-04-25T13:50:45.934Z,295.77
2019-04-25T13:52:45.769Z,295.84
2019-04-25T13:54:08.590Z,295.9
2019-04-25T13:56:08.745Z,295.9
2019-04-25T13:57:30.641Z,296.02
2019-04-25T13:59:30.650Z,296.09
2019-04-25T14:00:53.380Z,296.15
2019-04-25T14:02:53.210Z,296.21
2019-04-25T14:04:15.156Z,296.27
2019-04-25T14:06:15.050Z,296.34
2019-04-25T14:07:37.008Z,296.34
2019-04-25T14:09:38.008Z,296.4
2019-04-25T14:10:59.928Z,296.34
2019-04-25T14:13:04.798Z,296.27
2019-04-25T14:14:26.828Z,296.4
2019-04-25T14:16:26.852Z,296.77
2019-04-25T14:17:48.840Z,296.9
2019-04-25T14:19:48.736Z,297.09
2019-04-25T14:21:10.650Z,297.09
2019-04-25T14:23:12.962Z,297.09
2019-04-25T14:24:36.590Z,296.96
2019-04-25T14:26:36.825Z,297.15
2019-04-25T14:28:01.179Z,297.34
2019-04-25T14:30:01.088Z,297.4
2019-04-25T14:31:33.547Z,297.4
2019-04-25T14:33:42.201Z,297.27
2019-04-25T14:35:04.157Z,297.15
2019-04-25T14:37:04.012Z,297.21
2019-04-25T14:38:26.572Z,297.34
2019-04-25T14:40:27.086Z,297.09
2019-04-25T14:41:49.072Z,297.09
2019-04-25T14:43:48.970Z,297.02
2019-04-25T14:45:11.379Z,297.02
2019-04-25T14:47:11.209Z,296.84
2019-04-25T14:48:33.526Z,296.9
2019-04-25T14:50:34.003Z,296.96
2019-04-25T14:51:56.101Z,296.9
2019-04-25T14:53:56.970Z,296.71
2019-04-25T14:55:19.818Z,296.71
2019-04-25T14:57:19.930Z,296.77
2019-04-25T14:58:45.443Z,296.71
2019-04-25T15:00:49.081Z,296.71
2019-04-25T15:02:11.118Z,296.84
2019-04-25T15:04:10.990Z,296.84
2019-04-25T15:05:33.008Z,296.77
2019-04-25T15:07:46.000Z,296.84
2019-04-25T15:09:56.000Z,296.77
2019-04-25T15:11:19.000Z,296.71
2019-04-25T15:13:22.000Z,296.9
2019-04-25T15:14:45.000Z,296.96
2019-04-25T15:16:45.000Z,296.96
2019-04-25T15:18:07.000Z,296.96
2019-04-25T15:20:07.000Z,297.09
2019-04-25T15:21:30.000Z,297.02
2019-04-25T15:23:30.000Z,296.96
2019-04-25T15:24:52.000Z,296.96
2019-04-25T15:26:52.000Z,296.9
2019-04-25T15:28:14.000Z,296.96
2019-04-25T15:30:14.000Z,296.9
2019-04-25T15:31:36.000Z,296.96
2019-04-25T15:33:36.000Z,296.84
2019-04-25T15:34:59.000Z,296.84
2019-04-25T15:36:59.000Z,296.84
2019-04-25T15:38:21.000Z,296.84
2019-04-25T15:40:22.000Z,296.77
2019-04-25T15:41:45.000Z,296.71
2019-04-25T15:43:45.000Z,296.77
2019-04-25T15:45:07.000Z,296.84
2019-04-25T15:47:07.000Z,296.9
2019-04-25T15:48:29.000Z,296.84
2019-04-25T15:50:28.000Z,296.9
2019-04-25T15:51:52.000Z,296.96
2019-04-25T15:53:52.000Z,296.96
2019-04-25T15:55:14.000Z,297.09
2019-04-25T15:57:14.000Z,297.15
2019-04-25T15:58:37.000Z,297.21
2019-04-25T16:00:37.000Z,297.21
2019-04-25T16:01:59.000Z,297.15
2019-04-25T16:04:07.000Z,297.09
2019-04-25T16:05:29.000Z,297.09
2019-04-25T16:07:30.000Z,297.15
2019-04-25T16:08:54.000Z,297.15
2019-04-25T16:10:54.000Z,297.15
2019-04-25T16:12:16.000Z,297.15
2019-04-25T16:14:16.000Z,297.09
2019-04-25T16:15:38.000Z,297.02
2019-04-25T16:17:39.000Z,296.9
2019-04-25T16:19:01.000Z,296.9
2019-04-25T16:21:01.000Z,296.84
2019-04-25T16:22:23.000Z,296.77
2019-04-25T16:24:23.000Z,296.71
2019-04-25T16:25:45.000Z,296.71
2019-04-25T16:27:45.000Z,296.59
2019-04-25T16:29:07.000Z,296.59
2019-04-25T16:31:07.000Z,296.52
2019-04-25T16:32:29.000Z,296.52
2019-04-25T16:34:32.000Z,296.52
2019-04-25T16:35:54.000Z,296.52
2019-04-25T16:37:54.000Z,296.52
2019-04-25T16:39:16.000Z,296.65
2019-04-25T16:41:18.000Z,296.65
2019-04-25T16:42:40.000Z,296.71
2019-04-25T16:44:40.000Z,296.65
2019-04-25T16:46:02.000Z,296.65
2019-04-25T16:48:04.000Z,296.71
2019-04-25T16:49:26.000Z,296.71
2019-04-25T16:51:27.000Z,296.59
2019-04-25T16:52:51.000Z,296.65
2019-04-25T16:54:51.000Z,296.65
2019-04-25T16:56:13.000Z,296.52
2019-04-25T16:58:13.000Z,296.52
2019-04-25T16:59:36.000Z,296.46
2019-04-25T17:01:36.000Z,296.4
2019-04-25T17:02:58.000Z,296.46
2019-04-25T17:04:58.000Z,296.52
2019-04-25T17:06:20.000Z,296.52
2019-04-25T17:08:20.000Z,296.59
2019-04-25T17:09:42.000Z,296.52
2019-04-25T17:11:42.000Z,296.46
2019-04-25T17:13:04.000Z,296.46
2019-04-25T17:15:04.000Z,296.4
2019-04-25T17:16:26.000Z,296.34
2019-04-25T17:18:28.000Z,296.21
2019-04-25T17:19:50.000Z,296.21
2019-04-25T17:21:50.000Z,296.15
2019-04-25T17:23:13.000Z,296.15
2019-04-25T17:25:13.000Z,296.09
2019-04-25T17:26:35.000Z,296.09
2019-04-25T17:28:35.000Z,295.9
2019-04-25T17:29:57.000Z,295.9
2019-04-25T17:31:57.000Z,295.9
2019-04-25T17:33:21.000Z,295.9
2019-04-25T17:35:21.000Z,295.84
2019-04-25T17:36:43.000Z,295.71
2019-04-25T17:38:42.000Z,295.71
2019-04-25T17:40:04.000Z,295.65
2019-04-25T17:42:04.000Z,295.65
2019-04-25T17:43:26.000Z,295.59
2019-04-25T17:45:27.000Z,295.52
2019-04-25T17:46:52.000Z,295.46
2019-04-25T17:49:04.000Z,295.4
2019-04-25T17:50:26.000Z,295.34
2019-04-25T17:52:26.000Z,295.27
2019-04-25T17:53:49.000Z,295.27
2019-04-25T17:55:48.000Z,295.21
2019-04-25T17:57:12.000Z,295.15
2019-04-25T17:59:12.000Z,295.09
2019-04-25T18:00:34.000Z,295.02
2019-04-25T18:02:35.000Z,294.9
2019-04-25T18:03:57.000Z,294.84
2019-04-25T18:05:57.000Z,294.71
2019-04-25T18:07:20.000Z,294.59
2019-04-25T18:09:20.000Z,294.46
2019-04-25T18:10:42.000Z,294.34
2019-04-25T18:12:42.000Z,294.34
2019-04-25T18:14:09.000Z,294.34
2019-04-25T18:16:09.000Z,294.27
2019-04-25T18:17:34.000Z,294.15
2019-04-25T18:19:36.000Z,293.96
2019-04-25T18:20:59.000Z,293.71
2019-04-25T18:22:59.000Z,293.59
2019-04-25T18:24:22.000Z,293.59
2019-04-25T18:26:23.000Z,293.59
2019-04-25T18:27:47.000Z,293.52
2019-04-25T18:29:47.000Z,293.34
2019-04-25T18:31:09.000Z,293.27
2019-04-25T18:33:09.000Z,293.09
2019-04-25T18:34:31.000Z,293.02
2019-04-25T18:36:31.000Z,292.84
2019-04-25T18:37:53.000Z,292.65
2019-04-25T18:39:53.000Z,292.52
2019-04-25T18:41:15.000Z,292.59
2019-04-25T18:43:15.000Z,292.15
2019-04-25T18:44:37.000Z,291.96
2019-04-25T18:46:38.000Z,291.65
2019-04-25T18:48:00.000Z,291.59
2019-04-25T18:50:00.000Z,291.34
2019-04-25T18:51:22.000Z,291.21
2019-04-25T18:53:22.000Z,290.9
2019-04-25T18:54:44.000Z,290.84
2019-04-25T18:56:45.000Z,290.71
2019-04-25T18:58:07.000Z,290.52
2019-04-25T19:00:07.000Z,290.46
2019-04-25T19:01:29.000Z,290.4
2019-04-25T19:03:29.000Z,290.27
2019-04-25T19:04:51.000Z,290.21
2019-04-25T19:06:52.000Z,290.15
2019-04-25T19:09:43.000Z,289.84
2019-04-25T19:11:05.000Z,289.71
2019-04-25T19:13:05.000Z,289.52
2019-04-25T19:14:33.000Z,289.4
2019-04-25T19:16:33.000Z,289.34
2019-04-25T19:17:55.000Z,289.21
2019-04-25T19:19:55.000Z,289.09
2019-04-25T19:21:17.000Z,289.02
2019-04-25T19:23:17.000Z,288.84
2019-04-25T19:24:39.000Z,288.77
2019-04-25T19:26:46.000Z,288.65
2019-04-25T19:28:08.000Z,288.65
2019-04-25T19:30:09.000Z,288.59
2019-04-25T19:31:31.000Z,288.52
2019-04-25T19:33:32.000Z,288.34
2019-04-25T19:34:56.000Z,288.27
2019-04-25T19:36:58.000Z,288.09
2019-04-25T19:38:20.000Z,288.09
2019-04-25T19:40:20.000Z,287.84
2019-04-25T19:41:42.000Z,287.84
2019-04-25T19:43:42.000Z,287.77
2019-04-25T19:45:04.000Z,287.71
2019-04-25T19:47:05.000Z,287.65
2019-04-25T19:48:27.000Z,287.65
2019-04-25T19:50:27.000Z,287.52
2019-04-25T19:51:49.000Z,287.46
2019-04-25T19:53:50.000Z,287.4
2019-04-25T19:55:12.000Z,287.34
2019-04-25T19:57:12.000Z,287.27
2019-04-25T19:58:34.000Z,287.21
2019-04-25T20:00:34.000Z,287.21
2019-04-25T20:01:56.000Z,287.59
2019-04-25T20:03:56.000Z,287.65
2019-04-25T20:05:18.000Z,287.46
2019-04-25T20:07:20.000Z,287.4
2019-04-25T20:08:42.000Z,287.27
2019-04-25T20:10:43.000Z,287.15
2019-04-25T20:12:05.000Z,287.02
2019-04-25T20:14:05.000Z,286.9
2019-04-25T20:15:27.000Z,286.77
2019-04-25T20:17:27.000Z,286.71
2019-04-25T20:18:49.000Z,286.71
2019-04-25T20:20:49.000Z,286.77
2019-04-25T20:22:11.000Z,287.34
2019-04-25T20:24:12.000Z,288.02
2019-04-25T20:25:35.000Z,287.84
2019-04-25T20:27:35.000Z,287.71
2019-04-25T20:28:57.000Z,287.59
2019-04-25T20:30:57.000Z,287.96
2019-04-25T20:32:19.000Z,288.27
2019-04-25T20:34:19.000Z,288.4
2019-04-25T20:35:41.000Z,288.46
2019-04-25T20:37:41.000Z,288.46
2019-04-25T20:39:03.000Z,288.46
2019-04-25T20:41:03.000Z,288.4
2019-04-25T20:42:25.000Z,288.4
2019-04-25T20:44:25.000Z,288.34
2019-04-25T20:45:47.000Z,288.27
2019-04-25T20:47:48.000Z,288.21
2019-04-25T20:49:10.000Z,288.15
2019-04-25T20:51:10.000Z,288.09
2019-04-25T20:52:32.000Z,288.15
2019-04-25T20:54:32.000Z,288.02
2019-04-25T20:55:54.000Z,287.96
2019-04-25T20:57:54.000Z,287.9
2019-04-25T20:59:17.000Z,287.84
2019-04-25T21:01:17.000Z,287.77
2019-04-25T21:02:39.000Z,287.77
2019-04-25T21:04:39.000Z,287.77
2019-04-25T21:06:01.000Z,287.71
2019-04-25T21:08:01.000Z,287.65
2019-04-25T21:09:23.000Z,287.59
2019-04-25T21:11:23.000Z,287.59
2019-04-25T21:12:45.000Z,287.59
2019-04-25T21:14:45.000Z,287.46
2019-04-25T21:16:09.000Z,287.4
2019-04-25T21:18:09.000Z,287.34
2019-04-25T21:19:31.000Z,287.34
2019-04-25T21:21:31.000Z,287.4
2019-04-25T21:22:53.000Z,287.34
2019-04-25T21:24:53.000Z,287.27
2019-04-25T21:26:15.000Z,287.27
2019-04-25T21:28:15.000Z,287.15
2019-04-25T21:29:38.000Z,287.15
2019-04-25T21:31:38.000Z,287.02
2019-04-25T21:33:00.000Z,286.96
2019-04-25T21:35:00.000Z,286.9
2019-04-25T21:36:23.000Z,286.84
2019-04-25T21:38:23.000Z,286.77
2019-04-25T21:39:45.000Z,286.77
2019-04-25T21:41:46.000Z,286.84
2019-04-25T21:43:08.000Z,286.84
2019-04-25T21:45:09.000Z,286.77
2019-04-25T21:46:31.000Z,286.77
2019-04-25T21:48:31.000Z,286.71
2019-04-25T21:49:54.000Z,286.77
2019-04-25T21:51:54.000Z,286.71
2019-04-25T21:53:16.000Z,286.71
2019-04-25T21:55:17.000Z,286.77
2019-04-25T21:56:39.000Z,286.71
2019-04-25T21:58:39.000Z,286.65
2019-04-25T22:00:01.000Z,286.65
2019-04-25T22:02:07.000Z,286.71
2019-04-25T22:03:29.000Z,286.71
2019-04-25T22:05:29.000Z,286.65
2019-04-25T22:06:51.000Z,286.71
2019-04-25T22:08:52.000Z,286.71
2019-04-25T22:10:15.000Z,286.71
2019-04-25T22:12:15.000Z,286.65
2019-04-25T22:13:37.000Z,286.71
2019-04-25T22:15:38.000Z,286.65
2019-04-25T22:17:00.000Z,286.59
2019-04-25T22:19:01.000Z,286.52
2019-04-25T22:20:24.000Z,286.52
2019-04-25T22:22:25.000Z,286.52
2019-04-25T22:23:47.000Z,286.46
2019-04-25T22:25:47.000Z,286.46
2019-04-25T22:27:09.000Z,286.4
2019-04-25T22:29:09.000Z,286.34
2019-04-25T22:30:31.000Z,286.34
2019-04-25T22:32:31.000Z,286.27
2019-04-25T22:33:53.000Z,286.27
2019-04-25T22:35:55.000Z,286.15
2019-04-25T22:37:19.000Z,286.15
2019-04-25T22:39:19.000Z,286.09
2019-04-25T22:40:41.000Z,286.09
2019-04-25T22:42:43.000Z,286.02
2019-04-25T22:44:05.000Z,286.09
2019-04-25T22:46:06.000Z,286.09
2019-04-25T22:47:28.000Z,286.09
2019-04-25T22:49:28.000Z,286.09
2019-04-25T22:50:50.000Z,286.09
2019-04-25T22:52:50.000Z,286.02
2019-04-25T22:54:12.000Z,285.96
2019-04-25T22:56:12.000Z,285.77
2019-04-25T22:57:34.000Z,285.77
2019-04-25T22:59:34.000Z,285.84
2019-04-25T23:00:56.000Z,285.9
2019-04-25T23:02:55.000Z,285.77
2019-04-25T23:04:17.000Z,285.71
2019-04-25T23:06:18.000Z,285.65
2019-04-25T23:07:40.000Z,285.59
2019-04-25T23:09:40.000Z,285.65
2019-04-25T23:11:03.000Z,285.59
2019-04-25T23:13:03.000Z,285.34
2019-04-25T23:14:26.000Z,285.27
2019-04-25T23:16:26.000Z,285.21
2019-04-25T23:17:48.000Z,285.15
2019-04-25T23:19:48.000Z,285.21
2019-04-25T23:21:10.000Z,285.27
2019-04-25T23:23:10.000Z,285.21
2019-04-25T23:24:34.000Z,285.09
2019-04-25T23:26:35.000Z,285.27
2019-04-25T23:27:57.000Z,285.34
2019-04-25T23:29:57.000Z,285.34
2019-04-25T23:31:19.000Z,285.34
2019-04-25T23:33:19.000Z,285.27
2019-04-25T23:34:42.000Z,285.15
2019-04-25T23:36:42.000Z,285.15